sensor_id;sensor_type;location;lat;lon;timestamp;P1;durP1;ratioP1;P2;durP2;ratioP2
5349;SDS011;2697;42.144;24.794;2024-01-30T00:00:30;5.20;;;2.90;;
5349;SDS011;2697;42.144;24.794;2024-01-30T00:02:55;5.63;;;3.53;;
5349;SDS011;2697;42.144;24.794;2024-01-30T00:05:20;4.50;;;3.20;;
5349;SDS011;2697;42.144;24.794;2024-01-30T00:07:46;5.43;;;3.50;;
5349;SDS011;2697;42.144;24.794;2024-01-30T00:10:11;5.53;;;3.03;;
5349;SDS011;2697;42.144;24.794;2024-01-30T00:12:37;6.17;;;3.30;;
5349;SDS011;2697;42.144;24.794;2024-01-30T00:15:02;9.93;;;3.77;;
5349;SDS011;2697;42.144;24.794;2024-01-30T00:17:29;6.87;;;3.67;;
5349;SDS011;2697;42.144;24.794;2024-01-30T00:19:55;5.30;;;3.13;;
5349;SDS011;2697;42.144;24.794;2024-01-30T00:22:20;5.83;;;3.27;;
5349;SDS011;2697;42.144;24.794;2024-01-30T00:24:46;7.37;;;2.67;;
5349;SDS011;2697;42.144;24.794;2024-01-30T00:27:11;7.63;;;3.27;;
5349;SDS011;2697;42.144;24.794;2024-01-30T00:29:36;7.60;;;3.63;;
5349;SDS011;2697;42.144;24.794;2024-01-30T00:32:02;5.93;;;3.37;;
5349;SDS011;2697;42.144;24.794;2024-01-30T00:34:27;7.07;;;3.53;;
5349;SDS011;2697;42.144;24.794;2024-01-30T00:36:53;7.03;;;3.80;;
5349;SDS011;2697;42.144;24.794;2024-01-30T00:39:18;6.10;;;3.10;;
5349;SDS011;2697;42.144;24.794;2024-01-30T00:41:44;6.80;;;3.30;;
5349;SDS011;2697;42.144;24.794;2024-01-30T00:44:10;5.30;;;2.97;;
5349;SDS011;2697;42.144;24.794;2024-01-30T00:46:35;4.70;;;2.80;;
5349;SDS011;2697;42.144;24.794;2024-01-30T00:49:01;5.63;;;3.10;;
5349;SDS011;2697;42.144;24.794;2024-01-30T00:51:26;4.97;;;2.83;;
5349;SDS011;2697;42.144;24.794;2024-01-30T00:53:53;4.57;;;2.93;;
5349;SDS011;2697;42.144;24.794;2024-01-30T00:56:19;8.90;;;4.13;;
5349;SDS011;2697;42.144;24.794;2024-01-30T00:58:44;4.37;;;3.10;;
5349;SDS011;2697;42.144;24.794;2024-01-30T01:01:11;3.20;;;2.90;;
5349;SDS011;2697;42.144;24.794;2024-01-30T01:03:37;8.23;;;3.90;;
5349;SDS011;2697;42.144;24.794;2024-01-30T01:06:02;5.37;;;3.73;;
5349;SDS011;2697;42.144;24.794;2024-01-30T01:08:28;6.60;;;2.77;;
5349;SDS011;2697;42.144;24.794;2024-01-30T01:10:53;4.00;;;3.00;;
5349;SDS011;2697;42.144;24.794;2024-01-30T01:13:19;8.13;;;4.60;;
5349;SDS011;2697;42.144;24.794;2024-01-30T01:15:44;7.37;;;3.37;;
5349;SDS011;2697;42.144;24.794;2024-01-30T01:18:09;7.27;;;3.50;;
5349;SDS011;2697;42.144;24.794;2024-01-30T01:20:35;6.13;;;3.17;;
5349;SDS011;2697;42.144;24.794;2024-01-30T01:23:00;15.43;;;3.63;;
5349;SDS011;2697;42.144;24.794;2024-01-30T01:25:26;9.80;;;3.67;;
5349;SDS011;2697;42.144;24.794;2024-01-30T01:27:51;2.87;;;2.57;;
5349;SDS011;2697;42.144;24.794;2024-01-30T01:30:17;10.87;;;4.30;;
5349;SDS011;2697;42.144;24.794;2024-01-30T01:32:50;8.37;;;3.30;;
5349;SDS011;2697;42.144;24.794;2024-01-30T01:35:23;12.30;;;4.70;;
5349;SDS011;2697;42.144;24.794;2024-01-30T01:37:54;5.17;;;3.13;;
5349;SDS011;2697;42.144;24.794;2024-01-30T01:40:23;5.60;;;3.80;;
5349;SDS011;2697;42.144;24.794;2024-01-30T01:42:49;8.40;;;3.60;;
5349;SDS011;2697;42.144;24.794;2024-01-30T01:45:17;6.67;;;4.07;;
5349;SDS011;2697;42.144;24.794;2024-01-30T01:47:42;12.63;;;5.80;;
5349;SDS011;2697;42.144;24.794;2024-01-30T01:50:10;16.23;;;4.60;;
5349;SDS011;2697;42.144;24.794;2024-01-30T01:52:38;8.17;;;4.63;;
5349;SDS011;2697;42.144;24.794;2024-01-30T01:55:05;13.33;;;5.83;;
5349;SDS011;2697;42.144;24.794;2024-01-30T01:57:31;11.50;;;4.90;;
5349;SDS011;2697;42.144;24.794;2024-01-30T01:59:57;13.47;;;5.70;;
5349;SDS011;2697;42.144;24.794;2024-01-30T02:02:23;14.50;;;6.07;;
5349;SDS011;2697;42.144;24.794;2024-01-30T02:04:50;11.70;;;5.57;;
5349;SDS011;2697;42.144;24.794;2024-01-30T02:07:16;12.10;;;5.07;;
5349;SDS011;2697;42.144;24.794;2024-01-30T02:09:42;15.90;;;6.17;;
5349;SDS011;2697;42.144;24.794;2024-01-30T02:12:07;14.03;;;6.67;;
5349;SDS011;2697;42.144;24.794;2024-01-30T02:14:32;15.53;;;6.33;;
5349;SDS011;2697;42.144;24.794;2024-01-30T02:16:58;16.07;;;7.20;;
5349;SDS011;2697;42.144;24.794;2024-01-30T02:19:23;16.43;;;6.63;;
5349;SDS011;2697;42.144;24.794;2024-01-30T02:21:49;15.03;;;6.27;;
5349;SDS011;2697;42.144;24.794;2024-01-30T02:24:15;12.90;;;5.60;;
5349;SDS011;2697;42.144;24.794;2024-01-30T02:26:40;12.03;;;6.23;;
5349;SDS011;2697;42.144;24.794;2024-01-30T02:29:05;12.30;;;6.57;;
5349;SDS011;2697;42.144;24.794;2024-01-30T02:31:31;12.13;;;6.10;;
5349;SDS011;2697;42.144;24.794;2024-01-30T02:33:56;18.00;;;5.60;;
5349;SDS011;2697;42.144;24.794;2024-01-30T02:36:22;17.63;;;6.90;;
5349;SDS011;2697;42.144;24.794;2024-01-30T02:38:47;11.30;;;5.77;;
5349;SDS011;2697;42.144;24.794;2024-01-30T02:41:12;14.13;;;6.90;;
5349;SDS011;2697;42.144;24.794;2024-01-30T02:43:38;16.40;;;6.10;;
5349;SDS011;2697;42.144;24.794;2024-01-30T02:46:03;36.17;;;7.70;;
5349;SDS011;2697;42.144;24.794;2024-01-30T02:48:29;14.43;;;7.10;;
5349;SDS011;2697;42.144;24.794;2024-01-30T02:50:54;15.30;;;6.43;;
5349;SDS011;2697;42.144;24.794;2024-01-30T02:53:19;15.17;;;6.60;;
5349;SDS011;2697;42.144;24.794;2024-01-30T02:55:45;9.37;;;5.00;;
5349;SDS011;2697;42.144;24.794;2024-01-30T02:58:10;11.80;;;5.87;;
5349;SDS011;2697;42.144;24.794;2024-01-30T03:00:36;10.07;;;5.70;;
5349;SDS011;2697;42.144;24.794;2024-01-30T03:03:01;9.07;;;5.00;;
5349;SDS011;2697;42.144;24.794;2024-01-30T03:05:27;13.13;;;6.33;;
5349;SDS011;2697;42.144;24.794;2024-01-30T03:07:52;14.37;;;6.30;;
5349;SDS011;2697;42.144;24.794;2024-01-30T03:10:17;8.13;;;4.70;;
5349;SDS011;2697;42.144;24.794;2024-01-30T03:12:43;15.57;;;6.60;;
5349;SDS011;2697;42.144;24.794;2024-01-30T03:15:08;17.50;;;5.73;;
5349;SDS011;2697;42.144;24.794;2024-01-30T03:17:34;14.60;;;6.70;;
5349;SDS011;2697;42.144;24.794;2024-01-30T03:20:01;12.50;;;5.70;;
5349;SDS011;2697;42.144;24.794;2024-01-30T03:22:27;14.90;;;5.80;;
5349;SDS011;2697;42.144;24.794;2024-01-30T03:24:52;15.47;;;5.70;;
5349;SDS011;2697;42.144;24.794;2024-01-30T03:27:18;15.27;;;4.60;;
5349;SDS011;2697;42.144;24.794;2024-01-30T03:29:43;9.30;;;4.17;;
5349;SDS011;2697;42.144;24.794;2024-01-30T03:32:09;12.50;;;4.70;;
5349;SDS011;2697;42.144;24.794;2024-01-30T03:34:34;12.27;;;5.13;;
5349;SDS011;2697;42.144;24.794;2024-01-30T03:37:00;9.70;;;4.50;;
5349;SDS011;2697;42.144;24.794;2024-01-30T03:39:25;9.53;;;5.20;;
5349;SDS011;2697;42.144;24.794;2024-01-30T03:41:50;10.80;;;4.57;;
5349;SDS011;2697;42.144;24.794;2024-01-30T03:44:16;7.63;;;4.00;;
5349;SDS011;2697;42.144;24.794;2024-01-30T03:46:41;13.97;;;7.00;;
5349;SDS011;2697;42.144;24.794;2024-01-30T03:49:07;16.20;;;5.23;;
5349;SDS011;2697;42.144;24.794;2024-01-30T03:51:32;10.10;;;4.30;;
5349;SDS011;2697;42.144;24.794;2024-01-30T03:53:58;9.37;;;4.90;;
5349;SDS011;2697;42.144;24.794;2024-01-30T03:56:23;7.73;;;4.97;;
5349;SDS011;2697;42.144;24.794;2024-01-30T03:58:50;16.27;;;6.60;;
5349;SDS011;2697;42.144;24.794;2024-01-30T04:01:16;9.77;;;5.07;;
5349;SDS011;2697;42.144;24.794;2024-01-30T04:03:41;10.43;;;5.00;;
5349;SDS011;2697;42.144;24.794;2024-01-30T04:06:08;20.70;;;5.70;;
5349;SDS011;2697;42.144;24.794;2024-01-30T04:08:34;12.53;;;6.00;;
5349;SDS011;2697;42.144;24.794;2024-01-30T04:11:03;11.07;;;6.17;;
5349;SDS011;2697;42.144;24.794;2024-01-30T04:13:32;14.87;;;6.73;;
5349;SDS011;2697;42.144;24.794;2024-01-30T04:16:01;15.40;;;7.00;;
5349;SDS011;2697;42.144;24.794;2024-01-30T04:18:27;15.00;;;6.80;;
5349;SDS011;2697;42.144;24.794;2024-01-30T04:20:53;22.83;;;7.33;;
5349;SDS011;2697;42.144;24.794;2024-01-30T04:23:19;25.63;;;7.20;;
5349;SDS011;2697;42.144;24.794;2024-01-30T04:25:44;14.63;;;6.93;;
5349;SDS011;2697;42.144;24.794;2024-01-30T04:28:10;13.20;;;6.33;;
5349;SDS011;2697;42.144;24.794;2024-01-30T04:30:37;16.70;;;6.77;;
5349;SDS011;2697;42.144;24.794;2024-01-30T04:33:03;22.13;;;8.87;;
5349;SDS011;2697;42.144;24.794;2024-01-30T04:35:28;18.13;;;7.70;;
5349;SDS011;2697;42.144;24.794;2024-01-30T04:37:54;20.50;;;7.67;;
5349;SDS011;2697;42.144;24.794;2024-01-30T04:40:20;25.83;;;7.63;;
5349;SDS011;2697;42.144;24.794;2024-01-30T04:42:46;23.30;;;7.43;;
5349;SDS011;2697;42.144;24.794;2024-01-30T04:45:11;12.80;;;6.40;;
5349;SDS011;2697;42.144;24.794;2024-01-30T04:47:37;15.43;;;6.70;;
5349;SDS011;2697;42.144;24.794;2024-01-30T04:50:04;18.60;;;7.70;;
5349;SDS011;2697;42.144;24.794;2024-01-30T04:52:32;14.90;;;7.30;;
5349;SDS011;2697;42.144;24.794;2024-01-30T04:54:57;14.50;;;6.33;;
5349;SDS011;2697;42.144;24.794;2024-01-30T04:57:23;13.23;;;6.50;;
5349;SDS011;2697;42.144;24.794;2024-01-30T04:59:48;15.77;;;8.03;;
5349;SDS011;2697;42.144;24.794;2024-01-30T05:02:13;15.80;;;7.17;;
5349;SDS011;2697;42.144;24.794;2024-01-30T05:04:40;30.03;;;8.07;;
5349;SDS011;2697;42.144;24.794;2024-01-30T05:07:06;20.73;;;6.93;;
5349;SDS011;2697;42.144;24.794;2024-01-30T05:09:31;22.00;;;7.80;;
5349;SDS011;2697;42.144;24.794;2024-01-30T05:11:56;17.03;;;7.23;;
5349;SDS011;2697;42.144;24.794;2024-01-30T05:14:23;20.97;;;7.03;;
5349;SDS011;2697;42.144;24.794;2024-01-30T05:16:48;15.20;;;6.67;;
5349;SDS011;2697;42.144;24.794;2024-01-30T05:19:14;20.20;;;6.53;;
5349;SDS011;2697;42.144;24.794;2024-01-30T05:21:39;11.63;;;6.90;;
5349;SDS011;2697;42.144;24.794;2024-01-30T05:24:05;17.67;;;7.37;;
5349;SDS011;2697;42.144;24.794;2024-01-30T05:26:30;21.20;;;6.37;;
5349;SDS011;2697;42.144;24.794;2024-01-30T05:28:56;22.27;;;7.57;;
5349;SDS011;2697;42.144;24.794;2024-01-30T05:31:22;15.47;;;5.70;;
5349;SDS011;2697;42.144;24.794;2024-01-30T05:33:47;20.53;;;7.53;;
5349;SDS011;2697;42.144;24.794;2024-01-30T05:36:13;11.67;;;6.37;;
5349;SDS011;2697;42.144;24.794;2024-01-30T05:38:38;19.00;;;6.93;;
5349;SDS011;2697;42.144;24.794;2024-01-30T05:41:04;15.97;;;8.47;;
5349;SDS011;2697;42.144;24.794;2024-01-30T05:43:29;24.83;;;7.50;;
5349;SDS011;2697;42.144;24.794;2024-01-30T05:45:55;20.90;;;7.30;;
5349;SDS011;2697;42.144;24.794;2024-01-30T05:48:20;16.00;;;7.53;;
5349;SDS011;2697;42.144;24.794;2024-01-30T05:50:46;20.43;;;6.40;;
5349;SDS011;2697;42.144;24.794;2024-01-30T05:53:11;12.97;;;6.30;;
5349;SDS011;2697;42.144;24.794;2024-01-30T05:55:37;12.43;;;5.73;;
5349;SDS011;2697;42.144;24.794;2024-01-30T05:58:02;27.13;;;6.03;;
5349;SDS011;2697;42.144;24.794;2024-01-30T06:00:29;14.80;;;6.63;;
5349;SDS011;2697;42.144;24.794;2024-01-30T06:02:54;17.80;;;7.70;;
5349;SDS011;2697;42.144;24.794;2024-01-30T06:05:20;6.07;;;3.43;;
5349;SDS011;2697;42.144;24.794;2024-01-30T06:07:45;12.73;;;6.57;;
5349;SDS011;2697;42.144;24.794;2024-01-30T06:10:10;11.00;;;5.50;;
5349;SDS011;2697;42.144;24.794;2024-01-30T06:12:36;27.23;;;7.30;;
5349;SDS011;2697;42.144;24.794;2024-01-30T06:15:01;29.73;;;6.70;;
5349;SDS011;2697;42.144;24.794;2024-01-30T06:17:27;22.37;;;6.30;;
5349;SDS011;2697;42.144;24.794;2024-01-30T06:19:53;20.07;;;7.47;;
5349;SDS011;2697;42.144;24.794;2024-01-30T06:22:18;14.60;;;7.10;;
5349;SDS011;2697;42.144;24.794;2024-01-30T06:24:44;13.70;;;7.00;;
5349;SDS011;2697;42.144;24.794;2024-01-30T06:27:10;14.30;;;7.57;;
5349;SDS011;2697;42.144;24.794;2024-01-30T06:29:36;21.20;;;6.17;;
5349;SDS011;2697;42.144;24.794;2024-01-30T06:32:01;16.13;;;7.17;;
5349;SDS011;2697;42.144;24.794;2024-01-30T06:34:27;24.90;;;8.23;;
5349;SDS011;2697;42.144;24.794;2024-01-30T06:36:52;16.73;;;6.23;;
5349;SDS011;2697;42.144;24.794;2024-01-30T06:39:18;11.10;;;6.40;;
5349;SDS011;2697;42.144;24.794;2024-01-30T06:41:43;30.03;;;8.53;;
5349;SDS011;2697;42.144;24.794;2024-01-30T06:44:11;18.40;;;7.00;;
5349;SDS011;2697;42.144;24.794;2024-01-30T06:46:36;36.03;;;7.63;;
5349;SDS011;2697;42.144;24.794;2024-01-30T06:49:03;24.37;;;9.33;;
5349;SDS011;2697;42.144;24.794;2024-01-30T06:51:28;18.07;;;9.10;;
5349;SDS011;2697;42.144;24.794;2024-01-30T06:53:54;21.13;;;7.83;;
5349;SDS011;2697;42.144;24.794;2024-01-30T06:56:19;16.73;;;6.70;;
5349;SDS011;2697;42.144;24.794;2024-01-30T06:58:48;16.70;;;7.20;;
5349;SDS011;2697;42.144;24.794;2024-01-30T07:01:15;20.47;;;8.93;;
5349;SDS011;2697;42.144;24.794;2024-01-30T07:03:41;26.57;;;10.77;;
5349;SDS011;2697;42.144;24.794;2024-01-30T07:06:07;18.97;;;9.43;;
5349;SDS011;2697;42.144;24.794;2024-01-30T07:08:32;23.40;;;8.80;;
5349;SDS011;2697;42.144;24.794;2024-01-30T07:10:58;18.97;;;8.87;;
5349;SDS011;2697;42.144;24.794;2024-01-30T07:13:23;23.80;;;9.97;;
5349;SDS011;2697;42.144;24.794;2024-01-30T07:15:49;40.37;;;8.40;;
5349;SDS011;2697;42.144;24.794;2024-01-30T07:18:15;17.77;;;8.57;;
5349;SDS011;2697;42.144;24.794;2024-01-30T07:20:40;17.57;;;8.37;;
5349;SDS011;2697;42.144;24.794;2024-01-30T07:23:11;16.10;;;6.83;;
5349;SDS011;2697;42.144;24.794;2024-01-30T07:25:39;15.83;;;6.70;;
5349;SDS011;2697;42.144;24.794;2024-01-30T07:28:06;15.73;;;7.23;;
5349;SDS011;2697;42.144;24.794;2024-01-30T07:30:34;13.73;;;5.80;;
5349;SDS011;2697;42.144;24.794;2024-01-30T07:32:59;20.57;;;6.70;;
5349;SDS011;2697;42.144;24.794;2024-01-30T07:35:25;18.00;;;7.30;;
5349;SDS011;2697;42.144;24.794;2024-01-30T07:37:50;17.60;;;7.33;;
5349;SDS011;2697;42.144;24.794;2024-01-30T07:40:16;17.70;;;7.00;;
5349;SDS011;2697;42.144;24.794;2024-01-30T07:42:41;25.37;;;8.27;;
5349;SDS011;2697;42.144;24.794;2024-01-30T07:45:07;14.93;;;6.80;;
5349;SDS011;2697;42.144;24.794;2024-01-30T07:47:33;21.53;;;6.87;;
5349;SDS011;2697;42.144;24.794;2024-01-30T07:49:58;14.23;;;5.50;;
5349;SDS011;2697;42.144;24.794;2024-01-30T07:52:24;16.20;;;5.60;;
5349;SDS011;2697;42.144;24.794;2024-01-30T07:57:54;15.87;;;6.50;;
5349;SDS011;2697;42.144;24.794;2024-01-30T08:00:22;17.63;;;6.60;;
5349;SDS011;2697;42.144;24.794;2024-01-30T08:02:48;16.57;;;7.20;;
5349;SDS011;2697;42.144;24.794;2024-01-30T08:05:13;20.97;;;6.37;;
5349;SDS011;2697;42.144;24.794;2024-01-30T08:07:40;11.07;;;6.43;;
5349;SDS011;2697;42.144;24.794;2024-01-30T08:10:07;18.37;;;7.87;;
5349;SDS011;2697;42.144;24.794;2024-01-30T08:12:32;18.40;;;6.83;;
5349;SDS011;2697;42.144;24.794;2024-01-30T08:14:58;11.23;;;5.20;;
5349;SDS011;2697;42.144;24.794;2024-01-30T08:17:23;33.40;;;7.13;;
5349;SDS011;2697;42.144;24.794;2024-01-30T08:19:48;11.30;;;6.23;;
5349;SDS011;2697;42.144;24.794;2024-01-30T08:22:14;45.90;;;6.63;;
5349;SDS011;2697;42.144;24.794;2024-01-30T08:24:40;15.77;;;5.60;;
5349;SDS011;2697;42.144;24.794;2024-01-30T08:27:06;16.53;;;6.23;;
5349;SDS011;2697;42.144;24.794;2024-01-30T08:29:34;10.40;;;4.80;;
5349;SDS011;2697;42.144;24.794;2024-01-30T08:32:00;11.40;;;5.30;;
5349;SDS011;2697;42.144;24.794;2024-01-30T08:34:26;11.87;;;4.90;;
5349;SDS011;2697;42.144;24.794;2024-01-30T08:36:51;11.40;;;4.57;;
5349;SDS011;2697;42.144;24.794;2024-01-30T08:39:16;13.20;;;4.70;;
5349;SDS011;2697;42.144;24.794;2024-01-30T08:41:42;14.00;;;4.40;;
5349;SDS011;2697;42.144;24.794;2024-01-30T08:44:07;14.60;;;5.70;;
5349;SDS011;2697;42.144;24.794;2024-01-30T08:46:33;8.20;;;4.73;;
5349;SDS011;2697;42.144;24.794;2024-01-30T08:48:59;19.93;;;6.67;;
5349;SDS011;2697;42.144;24.794;2024-01-30T08:51:24;14.27;;;6.30;;
5349;SDS011;2697;42.144;24.794;2024-01-30T08:53:49;17.20;;;6.10;;
5349;SDS011;2697;42.144;24.794;2024-01-30T08:56:15;17.27;;;5.30;;
5349;SDS011;2697;42.144;24.794;2024-01-30T08:58:41;6.47;;;4.60;;
5349;SDS011;2697;42.144;24.794;2024-01-30T09:01:06;11.03;;;5.40;;
5349;SDS011;2697;42.144;24.794;2024-01-30T09:03:32;8.60;;;4.90;;
5349;SDS011;2697;42.144;24.794;2024-01-30T09:05:57;8.70;;;4.50;;
5349;SDS011;2697;42.144;24.794;2024-01-30T09:08:23;10.37;;;4.60;;
5349;SDS011;2697;42.144;24.794;2024-01-30T09:10:48;11.77;;;4.87;;
5349;SDS011;2697;42.144;24.794;2024-01-30T09:13:15;8.77;;;4.20;;
5349;SDS011;2697;42.144;24.794;2024-01-30T09:15:41;7.40;;;3.80;;
5349;SDS011;2697;42.144;24.794;2024-01-30T09:18:07;20.40;;;5.13;;
5349;SDS011;2697;42.144;24.794;2024-01-30T09:20:32;10.87;;;4.33;;
5349;SDS011;2697;42.144;24.794;2024-01-30T09:22:58;10.37;;;4.60;;
5349;SDS011;2697;42.144;24.794;2024-01-30T09:25:23;7.93;;;4.10;;
5349;SDS011;2697;42.144;24.794;2024-01-30T09:27:49;9.63;;;4.40;;
5349;SDS011;2697;42.144;24.794;2024-01-30T09:30:14;16.60;;;4.63;;
5349;SDS011;2697;42.144;24.794;2024-01-30T09:32:40;6.87;;;4.60;;
5349;SDS011;2697;42.144;24.794;2024-01-30T09:35:05;8.30;;;4.47;;
5349;SDS011;2697;42.144;24.794;2024-01-30T09:37:31;10.90;;;4.20;;
5349;SDS011;2697;42.144;24.794;2024-01-30T09:39:56;15.80;;;4.10;;
5349;SDS011;2697;42.144;24.794;2024-01-30T09:45:01;14.67;;;4.90;;
5349;SDS011;2697;42.144;24.794;2024-01-30T09:47:30;10.63;;;4.70;;
5349;SDS011;2697;42.144;24.794;2024-01-30T09:49:56;12.17;;;4.57;;
5349;SDS011;2697;42.144;24.794;2024-01-30T09:52:23;16.33;;;5.67;;
5349;SDS011;2697;42.144;24.794;2024-01-30T09:54:49;12.50;;;5.23;;
5349;SDS011;2697;42.144;24.794;2024-01-30T09:57:16;11.47;;;4.70;;
5349;SDS011;2697;42.144;24.794;2024-01-30T09:59:42;8.97;;;4.93;;
5349;SDS011;2697;42.144;24.794;2024-01-30T10:02:08;12.60;;;5.83;;
5349;SDS011;2697;42.144;24.794;2024-01-30T10:04:34;15.10;;;4.97;;
5349;SDS011;2697;42.144;24.794;2024-01-30T10:07:01;10.20;;;4.70;;
5349;SDS011;2697;42.144;24.794;2024-01-30T10:09:27;13.63;;;5.40;;
5349;SDS011;2697;42.144;24.794;2024-01-30T10:11:52;9.83;;;5.67;;
5349;SDS011;2697;42.144;24.794;2024-01-30T10:14:18;11.00;;;5.67;;
5349;SDS011;2697;42.144;24.794;2024-01-30T10:16:45;10.17;;;5.93;;
5349;SDS011;2697;42.144;24.794;2024-01-30T10:19:11;9.83;;;5.13;;
5349;SDS011;2697;42.144;24.794;2024-01-30T10:21:36;13.03;;;4.33;;
5349;SDS011;2697;42.144;24.794;2024-01-30T10:24:02;11.63;;;5.00;;
5349;SDS011;2697;42.144;24.794;2024-01-30T10:26:27;10.40;;;5.37;;
5349;SDS011;2697;42.144;24.794;2024-01-30T10:28:54;9.23;;;5.10;;
5349;SDS011;2697;42.144;24.794;2024-01-30T10:31:20;15.67;;;4.70;;
5349;SDS011;2697;42.144;24.794;2024-01-30T10:33:45;11.90;;;5.30;;
5349;SDS011;2697;42.144;24.794;2024-01-30T10:36:11;6.67;;;3.40;;
5349;SDS011;2697;42.144;24.794;2024-01-30T10:38:39;11.00;;;5.17;;
5349;SDS011;2697;42.144;24.794;2024-01-30T10:41:07;12.33;;;5.90;;
5349;SDS011;2697;42.144;24.794;2024-01-30T10:43:40;12.00;;;5.40;;
5349;SDS011;2697;42.144;24.794;2024-01-30T10:46:10;15.57;;;5.67;;
5349;SDS011;2697;42.144;24.794;2024-01-30T10:48:44;7.90;;;4.67;;
5349;SDS011;2697;42.144;24.794;2024-01-30T10:51:15;11.33;;;4.97;;
5349;SDS011;2697;42.144;24.794;2024-01-30T10:53:41;15.03;;;5.57;;
5349;SDS011;2697;42.144;24.794;2024-01-30T10:56:11;17.20;;;4.80;;
5349;SDS011;2697;42.144;24.794;2024-01-30T10:58:37;7.20;;;4.37;;
5349;SDS011;2697;42.144;24.794;2024-01-30T11:01:03;7.10;;;4.50;;
5349;SDS011;2697;42.144;24.794;2024-01-30T11:03:30;11.20;;;5.73;;
5349;SDS011;2697;42.144;24.794;2024-01-30T11:05:59;13.93;;;6.67;;
5349;SDS011;2697;42.144;24.794;2024-01-30T11:08:25;10.57;;;5.87;;
5349;SDS011;2697;42.144;24.794;2024-01-30T11:10:56;12.27;;;4.83;;
5349;SDS011;2697;42.144;24.794;2024-01-30T11:13:28;9.20;;;5.20;;
5349;SDS011;2697;42.144;24.794;2024-01-30T11:15:55;48.40;;;5.40;;
5349;SDS011;2697;42.144;24.794;2024-01-30T11:18:25;17.30;;;5.87;;
5349;SDS011;2697;42.144;24.794;2024-01-30T11:20:55;11.50;;;4.60;;
5349;SDS011;2697;42.144;24.794;2024-01-30T11:23:22;13.20;;;4.60;;
5349;SDS011;2697;42.144;24.794;2024-01-30T11:25:48;7.60;;;4.50;;
5349;SDS011;2697;42.144;24.794;2024-01-30T11:28:14;10.90;;;5.10;;
5349;SDS011;2697;42.144;24.794;2024-01-30T11:30:41;7.67;;;3.93;;
5349;SDS011;2697;42.144;24.794;2024-01-30T11:33:07;10.87;;;4.87;;
5349;SDS011;2697;42.144;24.794;2024-01-30T11:35:37;8.87;;;4.70;;
5349;SDS011;2697;42.144;24.794;2024-01-30T11:38:04;11.30;;;5.50;;
5349;SDS011;2697;42.144;24.794;2024-01-30T11:40:32;9.50;;;4.60;;
5349;SDS011;2697;42.144;24.794;2024-01-30T11:42:59;8.53;;;4.20;;
5349;SDS011;2697;42.144;24.794;2024-01-30T11:45:27;10.57;;;4.43;;
5349;SDS011;2697;42.144;24.794;2024-01-30T11:47:53;7.90;;;4.60;;
5349;SDS011;2697;42.144;24.794;2024-01-30T11:50:19;8.03;;;3.27;;
5349;SDS011;2697;42.144;24.794;2024-01-30T11:52:45;7.67;;;3.20;;
5349;SDS011;2697;42.144;24.794;2024-01-30T11:55:10;8.07;;;3.87;;
5349;SDS011;2697;42.144;24.794;2024-01-30T11:57:37;8.10;;;4.13;;
5349;SDS011;2697;42.144;24.794;2024-01-30T12:00:03;9.87;;;4.47;;
5349;SDS011;2697;42.144;24.794;2024-01-30T12:02:35;8.43;;;4.30;;
5349;SDS011;2697;42.144;24.794;2024-01-30T12:05:04;2.60;;;2.40;;
5349;SDS011;2697;42.144;24.794;2024-01-30T12:07:30;7.93;;;3.30;;
5349;SDS011;2697;42.144;24.794;2024-01-30T12:09:56;7.90;;;3.00;;
5349;SDS011;2697;42.144;24.794;2024-01-30T12:12:25;9.53;;;3.90;;
5349;SDS011;2697;42.144;24.794;2024-01-30T12:14:53;5.13;;;2.63;;
5349;SDS011;2697;42.144;24.794;2024-01-30T12:17:31;5.67;;;2.87;;
5349;SDS011;2697;42.144;24.794;2024-01-30T12:22:31;4.73;;;2.53;;
5349;SDS011;2697;42.144;24.794;2024-01-30T12:24:58;4.07;;;2.37;;
5349;SDS011;2697;42.144;24.794;2024-01-30T12:27:25;7.03;;;2.50;;
5349;SDS011;2697;42.144;24.794;2024-01-30T12:29:55;3.87;;;1.50;;
5349;SDS011;2697;42.144;24.794;2024-01-30T12:32:23;4.00;;;3.17;;
5349;SDS011;2697;42.144;24.794;2024-01-30T12:34:49;9.07;;;3.23;;
5349;SDS011;2697;42.144;24.794;2024-01-30T12:37:14;6.00;;;2.57;;
5349;SDS011;2697;42.144;24.794;2024-01-30T12:39:44;6.50;;;3.33;;
5349;SDS011;2697;42.144;24.794;2024-01-30T12:42:10;4.33;;;2.40;;
5349;SDS011;2697;42.144;24.794;2024-01-30T12:44:36;4.30;;;2.60;;
5349;SDS011;2697;42.144;24.794;2024-01-30T12:47:04;5.60;;;3.00;;
5349;SDS011;2697;42.144;24.794;2024-01-30T12:49:30;6.40;;;3.10;;
5349;SDS011;2697;42.144;24.794;2024-01-30T12:51:55;3.67;;;2.60;;
5349;SDS011;2697;42.144;24.794;2024-01-30T12:54:22;5.73;;;3.07;;
5349;SDS011;2697;42.144;24.794;2024-01-30T12:56:48;7.30;;;2.80;;
5349;SDS011;2697;42.144;24.794;2024-01-30T12:59:13;8.73;;;3.13;;
5349;SDS011;2697;42.144;24.794;2024-01-30T13:01:38;15.17;;;3.37;;
5349;SDS011;2697;42.144;24.794;2024-01-30T13:04:04;7.10;;;3.13;;
5349;SDS011;2697;42.144;24.794;2024-01-30T13:06:29;6.87;;;2.93;;
5349;SDS011;2697;42.144;24.794;2024-01-30T13:08:55;16.70;;;3.87;;
5349;SDS011;2697;42.144;24.794;2024-01-30T13:11:20;5.67;;;3.50;;
5349;SDS011;2697;42.144;24.794;2024-01-30T13:13:45;4.73;;;3.23;;
5349;SDS011;2697;42.144;24.794;2024-01-30T13:16:11;8.40;;;4.20;;
5349;SDS011;2697;42.144;24.794;2024-01-30T13:18:36;19.87;;;3.70;;
5349;SDS011;2697;42.144;24.794;2024-01-30T13:21:02;4.30;;;3.60;;
5349;SDS011;2697;42.144;24.794;2024-01-30T13:23:27;3.80;;;2.90;;
5349;SDS011;2697;42.144;24.794;2024-01-30T13:25:53;9.67;;;4.53;;
5349;SDS011;2697;42.144;24.794;2024-01-30T13:28:22;5.63;;;3.50;;
5349;SDS011;2697;42.144;24.794;2024-01-30T13:30:48;8.97;;;3.13;;
5349;SDS011;2697;42.144;24.794;2024-01-30T13:33:13;7.83;;;3.20;;
5349;SDS011;2697;42.144;24.794;2024-01-30T13:35:38;7.53;;;3.60;;
5349;SDS011;2697;42.144;24.794;2024-01-30T13:38:04;8.07;;;3.67;;
5349;SDS011;2697;42.144;24.794;2024-01-30T13:40:29;12.13;;;3.53;;
5349;SDS011;2697;42.144;24.794;2024-01-30T13:42:55;5.60;;;3.50;;
5349;SDS011;2697;42.144;24.794;2024-01-30T13:45:20;5.50;;;3.00;;
5349;SDS011;2697;42.144;24.794;2024-01-30T13:47:45;5.30;;;2.70;;
5349;SDS011;2697;42.144;24.794;2024-01-30T13:50:11;8.10;;;3.30;;
5349;SDS011;2697;42.144;24.794;2024-01-30T13:52:40;7.47;;;4.00;;
5349;SDS011;2697;42.144;24.794;2024-01-30T13:55:06;8.93;;;4.13;;
5349;SDS011;2697;42.144;24.794;2024-01-30T13:57:31;8.77;;;3.20;;
5349;SDS011;2697;42.144;24.794;2024-01-30T14:00:00;6.80;;;3.20;;
5349;SDS011;2697;42.144;24.794;2024-01-30T14:02:25;4.93;;;3.40;;
5349;SDS011;2697;42.144;24.794;2024-01-30T14:04:50;22.13;;;4.70;;
5349;SDS011;2697;42.144;24.794;2024-01-30T14:07:16;24.93;;;5.63;;
5349;SDS011;2697;42.144;24.794;2024-01-30T14:09:43;13.83;;;6.20;;
5349;SDS011;2697;42.144;24.794;2024-01-30T14:12:09;10.00;;;3.90;;
5349;SDS011;2697;42.144;24.794;2024-01-30T14:14:34;11.20;;;4.70;;
5349;SDS011;2697;42.144;24.794;2024-01-30T14:17:00;10.47;;;3.77;;
5349;SDS011;2697;42.144;24.794;2024-01-30T14:19:26;5.93;;;3.33;;
5349;SDS011;2697;42.144;24.794;2024-01-30T14:21:51;7.97;;;3.63;;
5349;SDS011;2697;42.144;24.794;2024-01-30T14:24:17;11.67;;;3.90;;
5349;SDS011;2697;42.144;24.794;2024-01-30T14:26:42;12.83;;;3.90;;
5349;SDS011;2697;42.144;24.794;2024-01-30T14:29:07;11.60;;;3.57;;
5349;SDS011;2697;42.144;24.794;2024-01-30T14:31:33;13.90;;;4.00;;
5349;SDS011;2697;42.144;24.794;2024-01-30T14:33:58;35.60;;;5.47;;
5349;SDS011;2697;42.144;24.794;2024-01-30T14:36:25;7.50;;;4.60;;
5349;SDS011;2697;42.144;24.794;2024-01-30T14:38:53;4.87;;;2.80;;
5349;SDS011;2697;42.144;24.794;2024-01-30T14:41:19;37.37;;;4.57;;
5349;SDS011;2697;42.144;24.794;2024-01-30T14:43:45;5.00;;;3.20;;
5349;SDS011;2697;42.144;24.794;2024-01-30T14:46:10;6.00;;;3.13;;
5349;SDS011;2697;42.144;24.794;2024-01-30T14:48:36;14.60;;;4.40;;
5349;SDS011;2697;42.144;24.794;2024-01-30T14:51:01;9.23;;;3.67;;
5349;SDS011;2697;42.144;24.794;2024-01-30T14:53:27;12.10;;;3.67;;